Time;durP1;ratioP1;P1;durP2;ratioP2;P2;SDS_P1;SDS_P2;PMS_P1;PMS_P2;Temp;Humidity;BMP_temperature;BMP_pressure;BME280_temperature;BME280_humidity;BME280_pressure;Samples;Min_cycle;Max_cycle;Signal;HPM_P1;HPM_P2
2023/08/29 00:00:38;;;;;;;8.70;7.80;;;;;;;24.81;100.00;98921.85;109416;1252;63893;-74
2023/08/29 00:03:06;;;;;;;8.70;7.80;;;;;;;24.75;100.00;98924.28;109417;1251;59013;-74
2023/08/29 00:05:33;;;;;;;8.90;8.00;;;;;;;24.69;100.00;98922.05;109458;1251;60045;-74
2023/08/29 00:08:01;;;;;;;12.10;8.10;;;;;;;24.62;100.00;98923.16;109458;1251;72976;-74
2023/08/29 00:10:30;;;;;;;14.10;8.70;;;;;;;24.55;100.00;98919.57;109424;1251;69983;-75
2023/08/29 00:12:57;;;;;;;10.40;9.30;;;;;;;24.49;100.00;98921.92;109443;1251;71907;-75
2023/08/29 00:15:25;;;;;;;12.40;8.60;;;;;;;24.42;100.00;98918.33;109417;1252;60394;-74
2023/08/29 00:17:52;;;;;;;9.00;8.10;;;;;;;24.37;100.00;98913.27;109463;1251;59975;-74
2023/08/29 00:20:20;;;;;;;9.50;8.50;;;;;;;24.31;100.00;98915.08;109445;1253;74610;-74
2023/08/29 00:22:47;;;;;;;11.90;8.10;;;;;;;24.25;100.00;98912.14;109474;1251;70114;-75
2023/08/29 00:25:15;;;;;;;9.60;8.50;;;;;;;24.20;100.00;98910.71;109432;1251;73133;-75
2023/08/29 00:27:43;;;;;;;9.80;8.40;;;;;;;24.16;100.00;98913.27;109434;1253;59282;-75
2023/08/29 00:30:11;;;;;;;11.80;9.30;;;;;;;24.13;100.00;98910.33;109402;1251;59211;-74
2023/08/29 00:32:39;;;;;;;16.20;8.80;;;;;;;24.11;100.00;98908.55;109444;1251;74687;-74
2023/08/29 00:35:06;;;;;;;10.20;8.10;;;;;;;24.08;100.00;98907.39;109458;1251;69767;-75
2023/08/29 00:37:34;;;;;;;8.80;8.00;;;;;;;24.06;100.00;98902.09;109410;1251;71826;-74
2023/08/29 00:40:02;;;;;;;9.80;8.80;;;;;;;24.02;100.00;98901.05;109419;1251;60017;-74
2023/08/29 00:42:29;;;;;;;11.50;8.60;;;;;;;23.98;100.00;98903.03;109422;1251;58905;-74
2023/08/29 00:44:57;;;;;;;12.90;9.40;;;;;;;23.95;100.00;98903.02;109432;1251;74710;-75
2023/08/29 00:47:25;;;;;;;11.60;9.50;;;;;;;23.92;100.00;98904.21;109393;1251;69990;-74
2023/08/29 00:49:52;;;;;;;13.70;9.80;;;;;;;23.89;100.00;98912.02;109428;1253;72656;-74
2023/08/29 00:52:20;;;;;;;10.00;8.90;;;;;;;23.86;100.00;98915.71;109147;1253;429655;-74
2023/08/29 00:54:47;;;;;;;13.20;9.40;;;;;;;23.83;100.00;98918.34;109453;1251;59010;-75
2023/08/29 00:57:15;;;;;;;11.40;9.40;;;;;;;23.79;100.00;98919.95;109404;1253;64517;-74
2023/08/29 00:59:42;;;;;;;11.90;10.00;;;;;;;23.76;100.00;98921.87;109381;1251;70406;-74
2023/08/29 01:02:10;;;;;;;10.80;9.60;;;;;;;23.71;100.00;98917.34;109409;1251;71456;-75
2023/08/29 01:04:38;;;;;;;12.90;9.00;;;;;;;23.66;100.00;98914.74;109412;1251;59892;-74
2023/08/29 01:07:05;;;;;;;14.90;9.00;;;;;;;23.62;100.00;98916.81;109425;1251;60048;-75
2023/08/29 01:09:33;;;;;;;10.70;8.30;;;;;;;23.58;100.00;98919.89;109431;1251;75161;-75
2023/08/29 01:12:17;;;;;;;12.10;8.40;;;;;;;23.55;100.00;98919.25;109396;1251;71095;-75
2023/08/29 01:14:55;;;;;;;10.30;9.10;;;;;;;23.52;100.00;98915.44;109426;1252;70696;-75
2023/08/29 01:17:31;;;;;;;9.90;8.20;;;;;;;23.50;100.00;98919.58;109381;1251;59203;-74
2023/08/29 01:19:59;;;;;;;9.10;8.30;;;;;;;23.47;100.00;98921.44;109118;1251;59194;-74
2023/08/29 01:22:45;;;;;;;11.70;9.00;;;;;;;23.46;100.00;98926.98;109380;1251;73424;-75
2023/08/29 01:25:29;;;;;;;9.50;8.60;;;;;;;23.45;100.00;98926.89;109349;1257;71728;-75
2023/08/29 01:27:57;;;;;;;9.90;8.30;;;;;;;23.44;100.00;98927.38;109412;1251;72455;-75
2023/08/29 01:30:25;;;;;;;8.60;7.70;;;;;;;23.44;100.00;98929.54;109365;1251;61979;-74
2023/08/29 01:32:54;;;;;;;10.30;8.80;;;;;;;23.43;100.00;98932.10;109449;1252;60028;-75
2023/08/29 01:35:22;;;;;;;10.20;8.20;;;;;;;23.42;100.00;98933.84;109427;1251;73601;-74
2023/08/29 01:37:49;;;;;;;10.40;9.40;;;;;;;23.42;100.00;98932.92;109406;1251;71025;-74
2023/08/29 01:40:17;;;;;;;10.40;9.20;;;;;;;23.42;100.00;98938.98;109370;1251;73058;-74
2023/08/29 01:42:45;;;;;;;9.90;8.60;;;;;;;23.43;100.00;98941.77;109386;1251;62266;-75
2023/08/29 01:45:12;;;;;;;13.90;9.60;;;;;;;23.45;100.00;98940.08;109442;1251;59301;-74
2023/08/29 01:47:42;;;;;;;13.80;10.50;;;;;;;23.47;100.00;98940.09;109377;1255;74633;-75
2023/08/29 01:50:10;;;;;;;10.60;9.40;;;;;;;23.48;100.00;98939.62;109425;1251;69847;-74
2023/08/29 01:52:37;;;;;;;15.00;9.60;;;;;;;23.50;100.00;98934.77;109181;1251;72483;-74
2023/08/29 01:55:05;;;;;;;11.00;9.80;;;;;;;23.52;100.00;98933.33;109220;1257;60080;-74
2023/08/29 01:57:34;;;;;;;16.90;10.30;;;;;;;23.54;100.00;98931.55;109440;1253;59977;-75
2023/08/29 02:00:04;;;;;;;13.50;9.80;;;;;;;23.56;100.00;98934.74;109360;1251;73363;-74
2023/08/29 02:02:41;;;;;;;12.90;9.50;;;;;;;23.57;100.00;98935.35;109452;1251;72172;-74
2023/08/29 02:05:08;;;;;;;13.30;10.00;;;;;;;23.58;100.00;98939.60;109436;1251;71825;-74
2023/08/29 02:07:36;;;;;;;10.90;9.30;;;;;;;23.58;100.00;98944.43;109349;1252;59063;-74
2023/08/29 02:10:04;;;;;;;16.30;9.60;;;;;;;23.57;100.00;98941.27;109427;1253;60007;-75
2023/08/29 02:12:31;;;;;;;9.80;8.10;;;;;;;23.56;100.00;98937.20;109442;1255;75070;-74
2023/08/29 02:15:00;;;;;;;11.80;8.90;;;;;;;23.57;100.00;98933.77;109335;1258;69789;-74
2023/08/29 02:17:27;;;;;;;13.70;9.40;;;;;;;23.56;100.00;98935.64;109404;1251;71450;-74
2023/08/29 02:19:55;;;;;;;12.10;9.20;;;;;;;23.54;100.00;98935.42;109413;1255;60524;-74
2023/08/29 02:22:23;;;;;;;10.40;8.80;;;;;;;23.52;100.00;98936.55;109411;1251;59247;-74
2023/08/29 02:24:50;;;;;;;11.50;8.80;;;;;;;23.51;100.00;98936.27;109376;1251;73381;-74
2023/08/29 02:27:18;;;;;;;10.30;9.10;;;;;;;23.50;100.00;98935.30;109381;1251;70023;-74
2023/08/29 02:29:45;;;;;;;11.00;9.20;;;;;;;23.49;100.00;98937.05;109364;1251;72712;-73
2023/08/29 02:32:14;;;;;;;11.20;8.90;;;;;;;23.46;100.00;98930.84;109382;1255;60390;-74
2023/08/29 02:34:41;;;;;;;10.80;9.40;;;;;;;23.43;100.00;98934.24;109401;1251;60167;-75
2023/08/29 02:37:09;;;;;;;14.20;9.50;;;;;;;23.38;100.00;98939.02;109405;1251;74633;-74
2023/08/29 02:39:36;;;;;;;11.70;9.00;;;;;;;23.35;100.00;98944.09;109403;1251;70013;-74
2023/08/29 02:42:04;;;;;;;11.80;9.30;;;;;;;23.31;100.00;98945.86;109437;1251;72598;-74
2023/08/29 02:44:32;;;;;;;12.90;9.10;;;;;;;23.27;100.00;98942.15;109417;1251;60406;-74
2023/08/29 02:46:59;;;;;;;12.30;9.20;;;;;;;23.23;100.00;98942.40;109346;1251;58898;-74
2023/08/29 02:49:27;;;;;;;9.80;8.40;;;;;;;23.18;100.00;98941.30;109395;1251;75105;-74
2023/08/29 02:51:56;;;;;;;12.20;9.00;;;;;;;23.12;100.00;98942.72;109477;1251;69922;-75
2023/08/29 02:54:23;;;;;;;10.30;9.10;;;;;;;23.06;100.00;98944.04;109399;1251;71357;-74
2023/08/29 02:56:51;;;;;;;10.20;9.20;;;;;;;23.01;100.00;98945.70;109439;1255;59437;-74
2023/08/29 02:59:18;;;;;;;11.10;9.60;;;;;;;22.95;100.00;98945.35;109448;1251;59315;-74
2023/08/29 03:01:48;;;;;;;10.50;9.10;;;;;;;22.92;100.00;98944.46;109445;1251;74647;-74
2023/08/29 03:04:15;;;;;;;12.50;9.70;;;;;;;22.87;100.00;98942.71;109433;1251;71406;-75
2023/08/29 03:06:43;;;;;;;10.90;9.00;;;;;;;22.83;100.00;98944.73;109378;1251;72646;-75
2023/08/29 03:09:12;;;;;;;11.90;10.20;;;;;;;22.81;100.00;98944.06;109418;1252;59369;-74
2023/08/29 03:11:40;;;;;;;13.80;9.70;;;;;;;22.78;100.00;98947.31;109432;1256;59036;-74
2023/08/29 03:14:09;;;;;;;11.50;8.70;;;;;;;22.76;100.00;98950.27;109365;1251;75190;-74
2023/08/29 03:16:36;;;;;;;10.70;9.10;;;;;;;22.74;100.00;98950.60;109421;1251;71107;-74
2023/08/29 03:19:05;;;;;;;10.30;9.10;;;;;;;22.72;100.00;98950.65;109316;1251;71424;-75
2023/08/29 03:21:32;;;;;;;12.50;10.00;;;;;;;22.68;100.00;98957.98;109425;1251;60122;-74
2023/08/29 03:24:00;;;;;;;13.40;9.90;;;;;;;22.64;100.00;98960.45;109365;1251;59194;-75
2023/08/29 03:26:28;;;;;;;11.80;9.70;;;;;;;22.60;100.00;98963.54;109338;1251;74748;-74
2023/08/29 03:28:56;;;;;;;13.00;8.90;;;;;;;22.57;100.00;98962.89;109411;1251;69843;-74
2023/08/29 03:31:23;;;;;;;13.50;9.80;;;;;;;22.55;100.00;98969.21;109348;1251;72484;-75
2023/08/29 03:33:51;;;;;;;13.00;9.50;;;;;;;22.52;100.00;98971.42;109312;1254;60108;-75
2023/08/29 03:36:19;;;;;;;14.30;11.10;;;;;;;22.51;100.00;98977.77;109321;1251;59957;-74
2023/08/29 03:38:47;;;;;;;21.40;11.60;;;;;;;22.51;100.00;98984.02;109416;1251;75087;-75
2023/08/29 03:41:14;;;;;;;15.60;10.80;;;;;;;22.54;100.00;98994.83;109419;1251;71192;-74
2023/08/29 03:43:42;;;;;;;17.50;12.00;;;;;;;22.58;100.00;98992.48;109420;1253;72746;-74
2023/08/29 03:46:10;;;;;;;21.80;12.90;;;;;;;22.62;100.00;98996.20;109408;1251;60178;-74
2023/08/29 03:48:38;;;;;;;21.00;13.60;;;;;;;22.69;100.00;98997.95;109417;1251;60265;-75
2023/08/29 03:51:06;;;;;;;15.70;11.10;;;;;;;22.77;100.00;99006.16;109449;1251;73883;-75
2023/08/29 03:53:35;;;;;;;22.10;12.60;;;;;;;22.84;100.00;99006.12;109347;1251;70008;-75
2023/08/29 03:56:03;;;;;;;25.80;14.10;;;;;;;22.92;100.00;99006.86;109320;1254;63904;-74
2023/08/29 03:58:32;;;;;;;22.90;13.70;;;;;;;22.98;100.00;99008.06;109380;1251;60168;-74
2023/08/29 04:01:00;;;;;;;18.20;13.70;;;;;;;23.05;100.00;99002.98;109306;1251;59366;-74
2023/08/29 04:03:28;;;;;;;15.20;11.90;;;;;;;23.12;100.00;99004.27;109322;1251;74692;-75
2023/08/29 04:05:57;;;;;;;20.90;12.70;;;;;;;23.19;100.00;99001.46;109447;1251;70714;-75
2023/08/29 04:08:24;;;;;;;24.70;13.30;;;;;;;23.25;100.00;99005.16;109431;1251;72475;-75
2023/08/29 04:10:52;;;;;;;18.80;12.20;;;;;;;23.33;100.00;99009.23;109375;1253;60023;-74
2023/08/29 04:13:19;;;;;;;20.50;12.30;;;;;;;23.42;100.00;99009.34;109308;1251;59339;-74
2023/08/29 04:15:47;;;;;;;16.80;11.90;;;;;;;23.51;100.00;99013.42;109316;1251;74642;-75
2023/08/29 04:18:15;;;;;;;18.00;11.30;;;;;;;23.60;100.00;99011.02;109397;1251;70768;-76
2023/08/29 04:20:46;;;;;;;23.20;12.40;;;;;;;23.68;100.00;99015.17;109351;1251;71427;-74
2023/08/29 04:23:13;;;;;;;20.30;13.20;;;;;;;23.79;100.00;99021.66;109364;1251;59121;-76
2023/08/29 04:25:46;;;;;;;18.70;12.30;;;;;;;23.88;100.00;99023.73;109163;1251;60621;-75
2023/08/29 04:28:19;;;;;;;19.90;12.70;;;;;;;23.96;100.00;99026.15;109424;1251;74700;-74
2023/08/29 04:30:47;;;;;;;15.20;11.90;;;;;;;24.03;100.00;99029.86;109396;1251;69506;-76
2023/08/29 04:33:15;;;;;;;21.90;13.00;;;;;;;24.11;100.00;99031.66;109398;1253;72752;-74
2023/08/29 04:35:43;;;;;;;20.90;12.20;;;;;;;24.18;100.00;99032.41;109426;1251;59149;-75
2023/08/29 04:38:10;;;;;;;15.50;11.90;;;;;;;24.25;100.00;99033.52;109417;1251;59913;-75
2023/08/29 04:40:38;;;;;;;15.60;11.90;;;;;;;24.32;100.00;99031.73;109266;1251;73426;-74
2023/08/29 04:43:05;;;;;;;21.00;12.80;;;;;;;24.39;100.00;99030.08;109335;1251;70157;-75
2023/08/29 04:45:33;;;;;;;17.10;11.90;;;;;;;24.46;100.00;99028.66;109375;1253;72697;-74
2023/08/29 04:48:00;;;;;;;16.30;12.30;;;;;;;24.54;100.00;99020.75;109298;1251;59107;-75
2023/08/29 04:50:30;;;;;;;19.00;12.80;;;;;;;24.61;100.00;99016.09;109380;1251;59088;-75
2023/08/29 04:52:59;;;;;;;23.00;13.00;;;;;;;24.70;100.00;99006.27;109290;1251;73402;-74
2023/08/29 04:55:26;;;;;;;16.30;11.50;;;;;;;24.77;100.00;99004.48;109338;1251;69972;-75
2023/08/29 04:57:56;;;;;;;18.90;13.00;;;;;;;24.83;100.00;99003.48;109298;1251;73117;-73
2023/08/29 05:00:23;;;;;;;24.20;15.60;;;;;;;24.92;100.00;99000.81;109393;1251;60318;-75
2023/08/29 05:02:51;;;;;;;109.20;60.90;;;;;;;25.00;100.00;99008.04;109292;1251;60096;-74
2023/08/29 05:05:19;;;;;;;35.80;21.80;;;;;;;25.10;100.00;99010.29;109272;1251;75102;-75
2023/08/29 05:07:46;;;;;;;43.90;23.60;;;;;;;25.18;100.00;99002.25;109388;1250;69620;-75
2023/08/29 05:10:14;;;;;;;35.90;21.60;;;;;;;25.25;100.00;99002.23;109349;1251;72695;-74
2023/08/29 05:12:41;;;;;;;23.90;17.10;;;;;;;25.33;100.00;99005.73;109369;1251;60090;-75
2023/08/29 05:15:09;;;;;;;22.60;12.50;;;;;;;25.42;100.00;99006.44;109419;1251;59994;-74
2023/08/29 05:17:37;;;;;;;21.10;13.80;;;;;;;25.49;100.00;99005.27;109346;1252;72761;-76
2023/08/29 05:20:08;;;;;;;32.70;20.10;;;;;;;25.57;100.00;99008.91;109353;1251;70757;-74
2023/08/29 05:22:36;;;;;;;26.30;15.40;;;;;;;25.66;100.00;99005.95;109385;1253;71049;-75
2023/08/29 05:25:04;;;;;;;21.80;12.90;;;;;;;25.73;100.00;99002.20;109280;1251;59081;-75
2023/08/29 05:27:31;;;;;;;16.70;11.60;;;;;;;25.83;100.00;99005.91;109417;1251;60543;-75
2023/08/29 05:29:59;;;;;;;26.50;16.00;;;;;;;25.93;100.00;99001.44;109374;1251;73357;-75
2023/08/29 05:32:27;;;;;;;24.00;11.80;;;;;;;26.00;100.00;98999.21;109343;1251;70797;-75
2023/08/29 05:34:54;;;;;;;31.50;15.10;;;;;;;26.08;100.00;98997.30;109405;1251;72653;-74
2023/08/29 05:37:22;;;;;;;29.20;13.00;;;;;;;26.15;100.00;98993.65;109375;1251;61703;-75
2023/08/29 05:39:49;;;;;;;28.50;12.90;;;;;;;26.23;100.00;98994.20;109430;1251;59179;-74
2023/08/29 05:42:17;;;;;;;29.00;12.50;;;;;;;26.32;100.00;98992.92;109410;1251;74597;-75
2023/08/29 05:44:44;;;;;;;23.60;11.70;;;;;;;26.40;100.00;98993.31;109435;1251;70372;-75
2023/08/29 05:47:12;;;;;;;33.50;14.40;;;;;;;26.49;100.00;98990.84;109394;1251;71145;-75
2023/08/29 05:49:39;;;;;;;39.00;16.50;;;;;;;26.58;100.00;98986.50;109390;1251;58994;-76
2023/08/29 05:52:07;;;;;;;30.10;12.80;;;;;;;26.66;100.00;98982.91;109434;1254;60474;-75
2023/08/29 05:54:37;;;;;;;39.20;15.60;;;;;;;26.74;100.00;98980.98;109442;1251;74734;-75
2023/08/29 05:57:05;;;;;;;15.80;10.30;;;;;;;26.82;100.00;98975.23;109387;1251;69791;-75
2023/08/29 05:59:33;;;;;;;28.60;13.90;;;;;;;26.90;100.00;98975.44;109387;1251;71384;-75
2023/08/29 06:02:00;;;;;;;14.40;10.70;;;;;;;26.98;100.00;98974.51;109339;1251;58979;-75
2023/08/29 06:04:28;;;;;;;29.20;12.70;;;;;;;27.08;100.00;98976.47;109463;1251;59933;-76
2023/08/29 06:06:56;;;;;;;25.00;10.90;;;;;;;27.20;100.00;98979.80;109354;1251;74656;-75
2023/08/29 06:09:23;;;;;;;22.40;11.40;;;;;;;27.32;100.00;98982.09;109403;1251;70948;-75
2023/08/29 06:11:51;;;;;;;36.90;14.20;;;;;;;27.44;100.00;98983.64;109338;1251;72811;-76
2023/08/29 06:14:18;;;;;;;20.20;11.50;;;;;;;27.54;100.00;98985.23;109412;1251;60093;-75
2023/08/29 06:16:46;;;;;;;13.90;10.20;;;;;;;27.63;100.00;98980.90;109366;1251;59239;-76
2023/08/29 06:19:14;;;;;;;11.20;9.30;;;;;;;27.74;100.00;98983.63;109365;1251;73658;-75
2023/08/29 06:21:41;;;;;;;53.40;21.80;;;;;;;27.83;100.00;98982.42;109403;1251;61573;-76
2023/08/29 06:24:09;;;;;;;21.70;10.80;;;;;;;27.92;100.00;98980.36;109434;1251;63755;-75
2023/08/29 06:26:37;;;;;;;20.90;9.50;;;;;;;28.01;100.00;98981.34;109440;1251;59434;-75
2023/08/29 06:29:05;;;;;;;19.60;9.90;;;;;;;28.09;100.00;98979.59;109415;1251;60023;-75
2023/08/29 06:31:32;;;;;;;16.50;9.90;;;;;;;28.17;100.00;98970.95;109432;1251;64493;-75
2023/08/29 06:34:00;;;;;;;14.50;9.70;;;;;;;28.25;100.00;98969.97;109402;1251;62306;-76
2023/08/29 06:36:27;;;;;;;20.10;10.40;;;;;;;28.36;100.00;98971.25;109434;1251;63707;-74
2023/08/29 06:38:55;;;;;;;18.40;10.20;;;;;;;28.46;100.00;98967.14;109283;1253;59197;-76
2023/08/29 06:41:23;;;;;;;20.30;10.40;;;;;;;28.56;100.00;98961.16;109477;1251;59082;-75
2023/08/29 06:43:50;;;;;;;15.50;9.90;;;;;;;28.65;100.00;98956.90;109420;1251;66472;-75
2023/08/29 06:46:18;;;;;;;19.00;11.10;;;;;;;28.73;100.00;98954.45;109448;1251;62199;-75
2023/08/29 06:48:45;;;;;;;19.90;10.10;;;;;;;28.79;100.00;98954.59;109411;1251;62468;-75
2023/08/29 06:51:13;;;;;;;17.70;10.50;;;;;;;28.84;100.00;98951.76;109391;1251;59079;-76
2023/08/29 06:53:40;;;;;;;19.80;9.80;;;;;;;28.92;100.00;98951.08;109407;1251;59134;-74
2023/08/29 06:56:08;;;;;;;14.40;9.70;;;;;;;28.99;100.00;98950.90;109418;1251;64500;-75
2023/08/29 06:58:36;;;;;;;16.80;9.50;;;;;;;29.07;100.00;98950.54;109417;1250;62411;-76
2023/08/29 07:01:04;;;;;;;16.90;9.30;;;;;;;29.14;100.00;98947.63;109380;1251;66286;-74
2023/08/29 07:03:32;;;;;;;11.90;9.10;;;;;;;29.22;100.00;98948.67;109370;1251;59383;-75
2023/08/29 07:06:00;;;;;;;19.90;9.80;;;;;;;29.32;100.00;98949.30;109433;1251;59121;-75
2023/08/29 07:08:27;;;;;;;14.30;9.50;;;;;;;29.42;100.00;98954.84;109404;1251;66282;-76
2023/08/29 07:10:55;;;;;;;18.50;9.60;;;;;;;29.51;100.00;98957.44;109421;1251;62309;-75
2023/08/29 07:13:23;;;;;;;14.10;9.60;;;;;;;29.61;100.00;98956.92;109357;1251;62444;-76
2023/08/29 07:15:50;;;;;;;20.70;10.80;;;;;;;29.71;100.00;98952.36;109401;1251;59209;-75
2023/08/29 07:18:20;;;;;;;26.60;15.50;;;;;;;29.79;100.00;98954.02;109459;1252;59411;-76
2023/08/29 07:20:48;;;;;;;19.10;11.00;;;;;;;29.89;100.00;98957.48;109370;1251;65822;-75
2023/08/29 07:23:17;;;;;;;20.80;9.80;;;;;;;30.00;100.00;98957.77;109470;1251;60918;-76
2023/08/29 07:25:44;;;;;;;22.40;10.60;;;;;;;30.10;100.00;98959.01;109377;1251;63723;-75
2023/08/29 07:28:15;;;;;;;22.30;10.20;;;;;;;30.19;100.00;98959.55;109371;1251;59124;-75
2023/08/29 07:30:44;;;;;;;17.70;9.80;;;;;;;30.26;100.00;98956.73;109434;1251;59073;-75
2023/08/29 07:33:13;;;;;;;14.70;10.20;;;;;;;30.35;100.00;98958.08;109432;1251;68392;-75
2023/08/29 07:35:40;;;;;;;19.90;9.90;;;;;;;30.45;100.00;98960.54;109329;1251;62399;-75
2023/08/29 07:38:08;;;;;;;14.90;10.10;;;;;;;30.53;100.00;98958.21;109434;1251;63717;-75
2023/08/29 07:40:35;;;;;;;17.80;10.50;;;;;;;30.62;100.00;98955.41;109405;1251;59262;-75
2023/08/29 07:43:04;;;;;;;21.40;10.40;;;;;;;30.73;100.00;98948.73;109395;1252;59040;-76
2023/08/29 07:45:32;;;;;;;20.00;10.80;;;;;;;30.86;100.00;98943.52;109429;1251;65726;-76
2023/08/29 07:47:59;;;;;;;18.10;9.90;;;;;;;30.97;100.00;98944.23;109367;1251;61098;-75
2023/08/29 07:50:27;;;;;;;18.00;9.50;;;;;;;31.08;100.00;98941.00;109402;1251;63788;-76
2023/08/29 07:52:55;;;;;;;21.10;9.80;;;;;;;31.20;100.00;98943.25;109386;1251;59430;-76
2023/08/29 07:55:22;;;;;;;17.50;10.10;;;;;;;31.32;100.00;98942.73;109421;1251;59196;-75
2023/08/29 07:57:50;;;;;;;12.90;8.70;;;;;;;31.43;100.00;98941.48;109286;1251;65962;-76
2023/08/29 08:00:18;;;;;;;16.60;9.40;;;;;;;31.55;100.00;98943.94;109442;1251;62209;-76
2023/08/29 08:02:46;;;;;;;21.40;9.60;;;;;;;31.68;100.00;98942.36;109349;1252;62446;-76
2023/08/29 08:05:14;;;;;;;19.50;9.20;;;;;;;31.80;100.00;98941.61;109403;1251;59468;-75
2023/08/29 08:07:44;;;;;;;19.90;9.30;;;;;;;31.88;100.00;98939.27;109446;1251;59393;-75
2023/08/29 08:10:12;;;;;;;21.60;9.40;;;;;;;31.98;100.00;98941.23;109424;1251;65828;-76
2023/08/29 08:12:40;;;;;;;15.50;8.00;;;;;;;32.09;100.00;98939.94;109410;1251;62164;-76
2023/08/29 08:15:08;;;;;;;11.40;8.40;;;;;;;32.18;100.00;98937.77;109383;1251;62563;-76
2023/08/29 08:17:36;;;;;;;16.20;8.10;;;;;;;32.25;100.00;98936.65;109404;1251;59032;-76
2023/08/29 08:20:08;;;;;;;13.90;8.80;;;;;;;32.32;100.00;98935.86;109407;1251;59036;-75
2023/08/29 08:22:39;;;;;;;12.00;7.80;;;;;;;32.40;100.00;98937.66;109409;1251;64426;-75
2023/08/29 08:25:07;;;;;;;12.80;8.20;;;;;;;32.47;100.00;98932.35;109282;1251;62298;-75
2023/08/29 08:27:36;;;;;;;16.40;8.40;;;;;;;32.54;100.00;98928.11;109413;1251;62470;-75
2023/08/29 08:30:05;;;;;;;10.60;7.60;;;;;;;32.63;100.00;98926.42;109404;1251;59110;-75
2023/08/29 08:32:32;;;;;;;15.40;7.70;;;;;;;32.70;100.00;98924.57;109383;1251;58860;-76
2023/08/29 08:35:00;;;;;;;14.30;7.80;;;;;;;32.79;100.00;98923.52;109390;1251;65690;-76
2023/08/29 08:37:27;;;;;;;15.80;7.80;;;;;;;32.88;100.00;98925.73;109369;1251;62614;-75
2023/08/29 08:39:55;;;;;;;9.90;6.80;;;;;;;32.98;100.00;98920.39;109398;1251;63719;-74
2023/08/29 08:42:22;;;;;;;12.90;6.50;;;;;;;33.06;100.00;98918.61;109427;1251;59868;-75
2023/08/29 08:44:50;;;;;;;9.20;6.30;;;;;;;33.13;100.00;98917.38;109412;1251;58901;-76
2023/08/29 08:47:18;;;;;;;10.10;6.60;;;;;;;33.23;100.00;98917.48;109429;1251;65751;-75
2023/08/29 08:49:45;;;;;;;10.80;5.80;;;;;;;33.31;100.00;98913.77;109423;1251;62159;-75
2023/08/29 08:52:13;;;;;;;8.70;6.60;;;;;;;33.40;100.00;98909.79;109400;1251;62517;-75
2023/08/29 08:54:41;;;;;;;10.20;6.60;;;;;;;33.51;100.00;98912.96;109407;1251;59214;-76
2023/08/29 08:57:11;;;;;;;11.00;6.50;;;;;;;33.61;100.00;98907.59;109212;1251;58905;-75
2023/08/29 08:59:39;;;;;;;12.20;6.40;;;;;;;33.68;100.00;98907.99;109307;1251;75239;-75
2023/08/29 09:02:10;;;;;;;12.80;6.40;;;;;;;33.73;100.00;98906.52;109304;1251;61134;-76
2023/08/29 09:04:37;;;;;;;8.50;6.40;;;;;;;33.78;100.00;98907.58;109414;1251;62482;-76
2023/08/29 09:07:05;;;;;;;10.20;6.40;;;;;;;33.84;100.00;98905.27;109395;1251;59610;-77
2023/08/29 09:09:32;;;;;;;16.10;7.30;;;;;;;33.92;100.00;98902.70;109421;1251;59295;-75
2023/08/29 09:12:00;;;;;;;7.40;6.60;;;;;;;33.97;100.00;98904.52;109416;1251;65827;-75
2023/08/29 09:14:29;;;;;;;10.10;6.30;;;;;;;34.05;100.00;98906.35;109471;1251;61118;-76
2023/08/29 09:16:57;;;;;;;8.00;5.70;;;;;;;34.14;100.00;98904.27;109414;1251;63966;-76
2023/08/29 09:19:25;;;;;;;11.00;6.70;;;;;;;34.22;100.00;98903.43;109391;1251;59477;-76
2023/08/29 09:21:53;;;;;;;11.50;6.60;;;;;;;34.31;100.00;98906.05;109381;1251;59071;-75
2023/08/29 09:24:36;;;;;;;12.80;5.90;;;;;;;34.41;100.00;98910.98;109420;1251;64664;-76
2023/08/29 09:27:08;;;;;;;15.60;6.70;;;;;;;34.55;100.00;98908.05;109397;1251;61063;-76
2023/08/29 09:29:36;;;;;;;12.30;6.40;;;;;;;34.70;100.00;98902.32;109412;1251;63841;-75
2023/08/29 09:32:14;;;;;;;11.80;6.00;;;;;;;34.83;100.00;98901.50;109430;1252;58967;-75
2023/08/29 09:34:41;;;;;;;12.20;6.20;;;;;;;34.91;94.11;98904.73;109425;1251;59438;-75
2023/08/29 09:37:10;;;;;;;9.60;6.00;;;;;;;34.99;87.53;98902.38;109457;1251;66157;-76
2023/08/29 09:39:38;;;;;;;13.90;7.10;;;;;;;35.02;90.47;98905.04;109408;1252;62195;-75
2023/08/29 09:42:10;;;;;;;11.30;6.20;;;;;;;35.06;93.56;98908.01;109366;1252;63842;-75
2023/08/29 09:44:38;;;;;;;10.80;6.10;;;;;;;35.13;96.00;98909.87;109408;1252;59394;-75
2023/08/29 09:47:08;;;;;;;14.60;6.20;;;;;;;35.20;89.42;98903.15;109409;1252;59354;-75
2023/08/29 09:49:48;;;;;;;10.20;6.00;;;;;;;35.25;87.74;98895.50;109427;1251;65719;-77
2023/08/29 09:52:16;;;;;;;7.40;5.90;;;;;;;35.31;90.83;98900.40;109428;1251;61362;-75
2023/08/29 09:54:48;;;;;;;5.80;5.20;;;;;;;35.39;87.58;98899.80;109426;1252;62454;-75
2023/08/29 09:57:18;;;;;;;10.80;6.20;;;;;;;35.48;88.01;98899.89;109408;1252;59119;-75
2023/08/29 09:59:46;;;;;;;9.90;5.40;;;;;;;35.57;81.51;98896.57;109460;1251;59035;-75
2023/08/29 10:02:14;;;;;;;10.10;5.80;;;;;;;35.64;76.43;98896.89;109426;1251;66497;-76
2023/08/29 10:04:46;;;;;;;14.90;5.70;;;;;;;35.70;73.16;98893.16;109441;1251;62210;-76
2023/08/29 10:07:15;;;;;;;12.40;6.10;;;;;;;35.72;71.19;98893.67;109369;1251;63970;-75
2023/08/29 10:09:45;;;;;;;12.30;5.60;;;;;;;35.75;73.09;98889.77;109394;1251;59367;-75
2023/08/29 10:12:13;;;;;;;13.50;5.80;;;;;;;35.79;75.26;98891.91;109408;1251;59235;-76
2023/08/29 10:14:41;;;;;;;12.10;6.60;;;;;;;35.84;76.34;98894.50;109418;1251;64492;-75
2023/08/29 10:17:10;;;;;;;11.40;5.90;;;;;;;35.88;75.44;98894.84;109425;1251;62185;-75
2023/08/29 10:19:56;;;;;;;6.80;5.80;;;;;;;35.95;78.26;98900.69;109398;1251;63691;-76
2023/08/29 10:22:27;;;;;;;13.10;5.70;;;;;;;35.99;75.65;98896.96;109293;1251;58966;-75
2023/08/29 10:24:54;;;;;;;9.90;5.80;;;;;;;36.05;74.53;98898.48;109418;1251;59080;-76
2023/08/29 10:27:22;;;;;;;11.00;6.30;;;;;;;36.13;76.37;98898.20;109339;1251;65740;-75
2023/08/29 10:29:50;;;;;;;10.70;5.40;;;;;;;36.21;72.63;98894.02;109430;1251;61023;-75
2023/08/29 10:32:17;;;;;;;7.20;5.60;;;;;;;36.23;73.92;98893.32;109410;1251;63774;-76
2023/08/29 10:34:45;;;;;;;13.30;5.60;;;;;;;36.27;67.86;98892.21;109198;1251;59401;-76
2023/08/29 10:37:17;;;;;;;6.90;5.60;;;;;;;36.33;66.31;98892.55;109448;1251;59231;-76
2023/08/29 10:39:44;;;;;;;10.80;5.70;;;;;;;36.40;61.20;98891.23;109427;1251;65762;-76
2023/08/29 10:42:13;;;;;;;10.90;5.70;;;;;;;36.42;62.03;98891.16;109397;1251;62157;-75
2023/08/29 10:44:45;;;;;;;13.80;6.10;;;;;;;36.50;67.86;98888.02;109397;1251;64192;-75
2023/08/29 10:47:16;;;;;;;8.10;5.90;;;;;;;36.63;67.76;98885.02;109480;1251;60166;-75
2023/08/29 10:49:44;;;;;;;8.00;5.60;;;;;;;36.74;66.74;98887.86;109444;1251;58888;-75
2023/08/29 10:52:13;;;;;;;7.10;5.30;;;;;;;36.81;62.37;98884.98;109462;1251;75278;-75
2023/08/29 10:54:41;;;;;;;8.50;5.80;;;;;;;36.86;59.01;98885.86;109447;1251;61068;-75
2023/08/29 10:57:28;;;;;;;10.90;5.40;;;;;;;36.92;59.30;98885.94;109204;1251;63796;-76
2023/08/29 10:59:56;;;;;;;8.30;5.30;;;;;;;36.98;58.27;98886.66;109448;1251;59036;-75
2023/08/29 11:02:25;;;;;;;11.30;5.20;;;;;;;37.01;57.87;98888.59;109438;1251;59398;-75
2023/08/29 11:05:09;;;;;;;10.40;5.60;;;;;;;37.06;56.15;98888.63;109427;1251;68038;-76
2023/08/29 11:07:38;;;;;;;9.30;5.30;;;;;;;37.11;54.62;98888.02;109441;1251;61020;-76
2023/08/29 11:10:24;;;;;;;11.60;5.60;;;;;;;37.13;52.16;98886.99;109392;1251;62698;-75
2023/08/29 11:13:01;;;;;;;9.30;5.10;;;;;;;37.18;53.64;98884.59;109447;1251;58953;-75
2023/08/29 11:15:47;;;;;;;8.50;5.20;;;;;;;37.22;51.66;98886.96;109417;1251;59040;-76